Nearby METAR Reports

 

KPAE - Everett, Washington, USA
Distance from station: NW 15mi, 25km
Updated: 04/11/2021 1:53am
Clear
Clear
 Wind from calm
Wind: Calm
Temperature: 37°F , 3°C
Dew Point: 28°F , -2°C
Humidity: 70%
Barometer: 30.34 inHg , 1027.4 hPa
Clouds: Clear
Visibility: 10 miles , 16 km
2021/04/11 08:53 KPAE 110853Z AUTO 00000KT 10SM CLR 03/M02 A3034 RMK AO2 SLP280 T00281017 50001
KBFI - Seattle/Boeing, Washington, USA
Distance from station: SW 20mi, 31km
Updated: 04/11/2021 1:53am
Clear
Clear
 Wind from NE
Wind: NE 3 mph , 6 km/h
Temperature: 41°F , 5°C
Dew Point: 32°F , 0°C
Humidity: 70%
Barometer: 30.35 inHg , 1027.8 hPa
Clouds: Clear
Visibility: 10 miles , 16 km
2021/04/11 08:53 KBFI 110853Z 04003KT 10SM CLR 05/00 A3035 RMK AO2 SLP278 T00500000 50000
KSEA - Seattle/Metro, Washington, USA
Distance from station: SSW 25mi, 41km
Updated: 04/11/2021 1:53am
Few Clouds
Few Clouds
 Wind from NNE
Wind: NNE 8 mph , 13 km/h
Temperature: 41°F , 5°C
Wind Chill: 36°F , 2°C
Dew Point: 30°F , -1°C
Humidity: 66%
Barometer: 30.34 inHg , 1027.4 hPa
Clouds: Few Clouds
Visibility: 10 miles , 16 km
Cloud details: Few Clouds 7000 ft
2021/04/11 08:53 KSEA 110853Z 03007KT 10SM FEW070 05/M01 A3034 RMK AO2 SLP281 T00501011 50001
 
KAWO - Arlington Muni, Washington, USA
Distance from station: NNW 28mi, 46km
Updated: 04/11/2021 2:04am
Mostly cloudy
Mostly cloudy
 Wind from calm
Wind: Calm
Temperature: 30°F , -1°C
Dew Point: 28°F , -2°C
Humidity: 93%
Barometer: 30.38 inHg , 1028.8 hPa
Clouds: Mostly cloudy
Visibility: 10 miles , 16 km
Cloud details: Mostly cloudy 2400 ft
2021/04/11 09:04 KAWO 110904Z AUTO 00000KT 10SM BKN024 M01/M02 A3038 RMK AO2 FZRANO
KPWT - Bremerton Ntnl, Washington, USA
Distance from station: WSW 38mi, 61km
Updated: 04/11/2021 1:56am
Few Clouds
Few Clouds
 Wind from calm
Wind: Calm
Temperature: 36°F , 2°C
Dew Point: 32°F , 0°C
Humidity: 87%
Barometer: 30.35 inHg , 1027.8 hPa
Clouds: Few Clouds
Visibility: 10 miles , 16 km
Cloud details: Few Clouds 4900 ft
2021/04/11 08:56 KPWT 110856Z AUTO 00000KT 10SM FEW049 02/00 A3035 RMK AO2 SLP286 60000 T00170000 51005 FZRANO
KTIW - Tacoma, Washington, USA
Distance from station: SW 43mi, 69km
Updated: 04/11/2021 1:53am
Overcast
Overcast
 Wind from NE
Wind: NE 6 mph , 9 km/h
Temperature: 43°F , 6°C
Wind Chill: 39°F , 4°C
Dew Point: 28°F , -2°C
Humidity: 57%
Barometer: 30.35 inHg , 1027.8 hPa
Clouds: Overcast
Visibility: 10 miles , 16 km
Cloud details: Overcast 6500 ft
2021/04/11 08:53 KTIW 110853Z AUTO 05005KT 10SM OVC065 06/M02 A3035 RMK AO2 SLP278 T00561022 50002 $
 
KPLU - Puyallup/Thun, Washington, USA
Distance from station: SSW 47mi, 76km
Updated: 04/11/2021 2:15am
Partly cloudy
Partly cloudy
 Wind from calm
Wind: Calm
Temperature: 32°F , 0°C
Dew Point: 32°F , 0°C
Humidity: 100%
Barometer: 30.34 inHg , 1027.4 hPa
Clouds: Partly cloudy
Visibility: 10 miles , 16 km
Cloud details: Partly cloudy 6000 ft
2021/04/11 09:15 KPLU 110915Z AUTO 00000KT 10SM SCT060 00/00 A3034 RMK AO2
KSMP - Stampede Pass, Washington, USA
Distance from station: SE 47mi, 76km
Updated: 04/11/2021 1:56am
Few Clouds
Few Clouds
 Wind from SSW
Wind: SSW 5 mph , 7 km/h
Temperature: 21°F , -6°C
Wind Chill: 14°F , -10°C
Dew Point: 19°F , -7°C
Humidity: 93%
Barometer: 30.18 inHg , 1022 hPa
Clouds: Few Clouds
Visibility: 10 miles , 16 km
Cloud details: Few Clouds 200 ft
2021/04/11 08:56 KSMP 110856Z AUTO 20004KT 10SM FEW002 M06/M07 A3018 RMK AO2 SLP255 I1001 I3001 T10561072 58002
KNUW - Whidbey Is. Nas, Washington, USA
Distance from station: NW 49mi, 79km
Updated: 04/11/2021 1:56am
Partly cloudy
Partly cloudy
 Wind from WNW
Wind: WNW 12 mph , 19 km/h
Temperature: 45°F , 7°C
Wind Chill: 39°F , 4°C
Dew Point: 36°F , 2°C
Humidity: 71%
Barometer: 30.39 inHg , 1029.1 hPa
Clouds: Partly cloudy
Visibility: 10 miles , 16 km
Cloud details: Partly cloudy 7500 ft
Partly cloudy 25000 ft
2021/04/11 08:56 KNUW 110856Z 29010KT 10SM SCT075 SCT250 07/02 A3039 RMK AO2 SLP290 T00670017 53003 $
 
KBVS - Burlington/Mt V, Washington, USA
Distance from station: NNW 51mi, 83km
Updated: 04/11/2021 2:15am
Overcast
Overcast
 Wind from calm
Wind: Calm
Temperature: 32°F , 0°C
Dew Point: 28°F , -2°C
Humidity: 87%
Barometer: 30.37 inHg , 1028.4 hPa
Clouds: Overcast
Visibility: 10 miles , 16 km
Cloud details: Mostly cloudy 1800 ft
Overcast 4900 ft
2021/04/11 09:15 KBVS 110915Z AUTO 00000KT 10SM BKN018 OVC049 00/M02 A3037 RMK A01
KSHN - Shelton, Washington, USA
Distance from station: SW 63mi, 101km
Updated: 04/11/2021 1:53am
Partly cloudy
Partly cloudy
 Wind from calm
Wind: Calm
Temperature: 30°F , -1°C
Dew Point: 28°F , -2°C
Humidity: 93%
Barometer: 30.34 inHg , 1027.4 hPa
Clouds: Partly cloudy
Visibility: 10 miles , 16 km
Cloud details: Partly cloudy 6500 ft
2021/04/11 08:53 KSHN 110853Z AUTO 00000KT 10SM SCT065 M01/M02 A3034 RMK AO2 SLP278 T10111017 51004
KOLM - Olympia, Washington, USA
Distance from station: SW 68mi, 110km
Updated: 04/11/2021 1:54am
Overcast
Overcast
 Wind from calm
Wind: Calm
Temperature: 32°F , 0°C
Dew Point: 28°F , -2°C
Humidity: 87%
Barometer: 30.36 inHg , 1028.1 hPa
Clouds: Overcast
Visibility: 10 miles , 16 km
Cloud details: Overcast 6500 ft
2021/04/11 08:54 KOLM 110854Z AUTO 00000KT 10SM OVC065 00/M02 A3036 RMK AO2 SLP281 T00001017 50002
 
KCLM - Port Angeles, Washington, USA
Distance from station: WNW 72mi, 115km
Updated: 04/11/2021 1:53am
Clear
Clear
 Wind from SW
Wind: SW 12 mph , 19 km/h
Temperature: 36°F , 2°C
Wind Chill: 28°F , -2°C
Dew Point: 27°F , -3°C
Humidity: 70%
Barometer: 30.36 inHg , 1028.1 hPa
Clouds: Clear
Visibility: 10 miles , 16 km
2021/04/11 08:53 KCLM 110853Z AUTO 23010KT 10SM CLR 02/M03 A3036 RMK AO2 SLP284 T00221028 53002
CWYJ - Victoria Univ, British Columbia, Canada
Distance from station: NW 75mi, 121km
Updated: 04/11/2021 2:00am

 Wind from WNW
Wind: WNW 2 mph , 4 km/h
Temperature: 34°F , 1°C
Dew Point: 32°F , 0°C
Humidity: 93%
2021/04/11 09:00 CWYJ 110900Z AUTO 29002KT 01/M00 RMK AO1 SLP283 T00111004 53007
KBLI - Bellingham, Washington, USA
Distance from station: NNW 75mi, 121km
Updated: 04/11/2021 1:53am
Clear
Clear
 Wind from S
Wind: S 3 mph , 6 km/h
Temperature: 36°F , 2°C
Dew Point: 30°F , -1°C
Humidity: 81%
Barometer: 30.35 inHg , 1027.8 hPa
Clouds: Clear
Visibility: 10 miles , 16 km
2021/04/11 08:53 KBLI 110853Z AUTO 17003KT 10SM CLR 02/M01 A3035 RMK AO2 SLP287 T00171006 53007